Felixstowe, United Kingdom
Current Conditions -  °F | °C
As of 10:50 PM on Tuesday 21 Oct 2014 (Local Time) from EGUW Reporting Station
Clear Clear  
Wind Chill: 34°   Ceiling: Unl
Heat Index: 43°   Visibility: 6mi
Dew Point: 36°   Wind: 21mph
Humidity: 76%   Direction: 290°WNW
Pressure: 29.97"   Gusts: 32mph
Location:  51.96°N, 1.35°E
Report Text: EGUW 212150Z 29018G28KT CAVOK 06/02 Q1015 BLU NOSIG
Loading
Personal Weather Stations






























Interactive Weather Map
Tropical Storm Tracking
New forecast layout! Learn more

10-Day Weather Forecast

Advertisements
Track Severe Weather on mobile